Time;durP1;ratioP1;P1;durP2;ratioP2;P2;SDS_P1;SDS_P2;PMS_P1;PMS_P2;Temp;Humidity;BMP_temperature;BMP_pressure;BME280_temperature;BME280_humidity;BME280_pressure;Samples;Min_cycle;Max_cycle;Signal;HPM_P1;HPM_P2
2022/07/14 00:00:54;;;;;;;5.53;3.73;;;;;;;19.90;65.72;100686.09;5054617;28;20048;-64
2022/07/14 00:03:26;;;;;;;5.10;3.38;;;;;;;19.92;65.53;100683.72;5051447;28;20053;-64
2022/07/14 00:05:53;;;;;;;5.22;3.33;;;;;;;19.93;65.49;100688.16;5054471;28;20056;-64
2022/07/14 00:08:24;;;;;;;6.25;3.70;;;;;;;19.93;65.53;100686.19;5054751;28;20060;-64
2022/07/14 00:10:51;;;;;;;5.22;3.65;;;;;;;19.96;65.34;100684.63;5054135;28;20044;-64
2022/07/14 00:13:19;;;;;;;5.90;3.20;;;;;;;19.92;65.52;100678.88;5051866;28;20049;-64
2022/07/14 00:15:46;;;;;;;5.13;3.70;;;;;;;19.88;65.66;100678.00;5052820;28;20057;-64
2022/07/14 00:18:13;;;;;;;5.68;3.28;;;;;;;19.86;65.74;100684.03;5054313;28;20397;-64
2022/07/14 00:20:42;;;;;;;7.15;3.70;;;;;;;19.84;65.70;100683.59;5054246;28;20057;-64
2022/07/14 00:23:09;;;;;;;3.47;3.10;;;;;;;19.84;65.78;100692.06;5053373;28;20061;-64
2022/07/14 00:25:36;;;;;;;5.13;3.22;;;;;;;19.83;65.65;100693.25;5051813;28;20532;-64
2022/07/14 00:28:04;;;;;;;4.30;2.90;;;;;;;19.80;65.52;100693.16;5054525;28;20048;-64
2022/07/14 00:30:32;;;;;;;5.47;2.95;;;;;;;19.77;65.64;100689.09;5054311;28;20045;-64
2022/07/14 00:32:59;;;;;;;5.13;3.20;;;;;;;19.75;65.73;100691.47;5046254;28;20053;-64
2022/07/14 00:35:26;;;;;;;5.35;3.20;;;;;;;19.72;65.91;100686.56;5044028;28;20374;-64
2022/07/14 00:37:55;;;;;;;5.47;3.47;;;;;;;19.69;66.24;100667.47;5054103;28;20049;-64
2022/07/14 00:40:22;;;;;;;4.70;3.20;;;;;;;19.69;66.26;100678.78;5045545;28;20076;-64
2022/07/14 00:42:51;;;;;;;5.85;3.60;;;;;;;19.66;66.50;100676.72;5048738;28;20389;-64
2022/07/14 00:45:26;;;;;;;5.85;3.55;;;;;;;19.64;66.33;100673.44;5053872;28;20052;-64
2022/07/14 00:47:53;;;;;;;5.45;3.33;;;;;;;19.63;66.06;100677.44;5053476;28;20049;-64
2022/07/14 00:50:24;;;;;;;5.90;3.42;;;;;;;19.65;65.95;100673.06;5053634;28;20055;-64
2022/07/14 00:52:53;;;;;;;9.77;4.32;;;;;;;19.64;66.23;100676.25;5048425;28;20060;-64
2022/07/14 00:55:22;;;;;;;6.68;3.30;;;;;;;19.64;66.22;100676.25;5045385;28;20056;-64
2022/07/14 00:57:50;;;;;;;5.93;3.38;;;;;;;19.62;66.02;100665.31;5053519;28;20076;-64
2022/07/14 01:00:18;;;;;;;7.57;3.55;;;;;;;19.62;66.05;100668.16;5053791;28;20053;-65
2022/07/14 01:02:51;;;;;;;7.90;3.50;;;;;;;19.57;65.87;100670.44;5049410;28;20489;-64
2022/07/14 01:05:18;;;;;;;7.88;3.33;;;;;;;19.51;66.20;100666.28;5044893;28;20064;-64
2022/07/14 01:07:47;;;;;;;8.20;3.33;;;;;;;19.48;66.37;100671.47;5053087;28;20060;-64
2022/07/14 01:10:14;;;;;;;6.10;3.13;;;;;;;19.48;66.29;100667.84;5045442;28;20057;-64
2022/07/14 01:12:46;;;;;;;5.63;3.20;;;;;;;19.47;66.61;100674.69;5051117;28;20115;-64
2022/07/14 01:15:15;;;;;;;6.30;3.13;;;;;;;19.44;66.67;100673.44;5043059;28;20057;-64
2022/07/14 01:17:42;;;;;;;6.22;3.20;;;;;;;19.44;66.73;100678.25;5052959;28;20053;-64
2022/07/14 01:20:10;;;;;;;5.72;3.30;;;;;;;19.41;66.68;100676.97;5053214;28;20056;-64
2022/07/14 01:22:39;;;;;;;6.60;4.00;;;;;;;19.42;66.79;100680.63;5053044;28;20489;-64
2022/07/14 01:25:10;;;;;;;6.90;3.70;;;;;;;19.43;66.44;100685.91;5042432;28;20057;-64
2022/07/14 01:27:37;;;;;;;6.90;3.65;;;;;;;19.39;66.53;100684.19;5052989;28;20409;-64
2022/07/14 01:30:08;;;;;;;7.47;3.38;;;;;;;19.40;66.39;100680.16;5052746;28;20056;-64
2022/07/14 01:32:35;;;;;;;5.65;3.17;;;;;;;19.40;66.53;100678.19;5047506;28;20489;-64
2022/07/14 01:35:04;;;;;;;9.57;3.95;;;;;;;19.42;66.41;100673.00;5033070;28;20053;-64
2022/07/14 01:37:35;;;;;;;8.20;3.17;;;;;;;19.39;66.37;100679.34;5033105;28;20053;-64
2022/07/14 01:40:06;;;;;;;8.73;3.65;;;;;;;19.38;66.37;100672.09;5032432;28;20065;-64
2022/07/14 01:42:33;;;;;;;7.10;3.45;;;;;;;19.37;66.46;100673.25;5042800;28;20105;-64
2022/07/14 01:45:01;;;;;;;8.98;3.75;;;;;;;19.34;66.07;100676.84;5052087;28;20406;-64
2022/07/14 01:47:28;;;;;;;8.38;3.30;;;;;;;19.36;66.12;100674.47;5052597;28;20065;-64
2022/07/14 01:49:56;;;;;;;7.65;3.55;;;;;;;19.26;66.27;100663.75;5052476;28;20374;-64
2022/07/14 01:52:23;;;;;;;6.82;3.15;;;;;;;19.27;65.99;100665.34;5049581;28;20052;-64
2022/07/14 01:54:50;;;;;;;9.52;3.42;;;;;;;19.26;66.07;100673.03;5032393;28;20060;-64
2022/07/14 01:57:19;;;;;;;9.27;3.50;;;;;;;19.21;66.49;100678.97;5032350;28;20057;-64
2022/07/14 01:59:46;;;;;;;9.45;3.53;;;;;;;19.16;66.87;100679.25;5025004;28;20054;-64
2022/07/14 02:02:14;;;;;;;7.38;3.35;;;;;;;19.12;66.96;100671.88;5032681;28;20049;-64
2022/07/14 02:04:42;;;;;;;9.25;3.63;;;;;;;19.12;66.80;100689.63;5032358;28;20362;-64
2022/07/14 02:07:09;;;;;;;9.73;4.25;;;;;;;19.11;66.96;100684.34;5032039;28;20072;-64
2022/07/14 02:12:22;;;;;;;7.40;3.50;;;;;;;19.11;67.08;100675.88;5032329;28;20072;-64
2022/07/14 02:14:50;;;;;;;6.85;3.33;;;;;;;19.11;67.25;100671.06;5041631;28;20065;-64
2022/07/14 02:17:21;;;;;;;8.60;3.50;;;;;;;19.12;67.17;100677.53;5051692;28;20057;-65
2022/07/14 02:19:51;;;;;;;6.68;3.30;;;;;;;19.13;67.01;100684.78;5051860;28;20409;-64
2022/07/14 02:22:18;;;;;;;7.97;3.42;;;;;;;19.12;67.37;100683.19;5051807;28;20053;-64
2022/07/14 02:24:46;;;;;;;7.35;3.03;;;;;;;19.11;67.27;100675.88;5048877;28;20052;-64
2022/07/14 02:27:14;;;;;;;7.10;3.45;;;;;;;19.11;67.26;100687.16;5051003;28;20049;-64
2022/07/14 02:29:42;;;;;;;9.52;3.47;;;;;;;19.12;67.31;100689.63;5049113;28;20049;-64
2022/07/14 02:32:10;;;;;;;8.02;4.00;;;;;;;19.12;67.11;100680.34;5051920;28;20048;-64
2022/07/14 02:34:37;;;;;;;8.02;3.42;;;;;;;19.12;66.89;100672.69;5049314;28;20059;-64
2022/07/14 02:37:07;;;;;;;8.02;2.95;;;;;;;19.13;66.82;100679.16;5051798;28;20057;-64
2022/07/14 02:39:34;;;;;;;6.78;3.15;;;;;;;19.11;66.87;100687.16;5051692;28;20053;-64
2022/07/14 02:42:01;;;;;;;9.07;3.47;;;;;;;19.04;67.32;100683.00;5051177;28;20044;-64
2022/07/14 02:44:29;;;;;;;7.28;3.28;;;;;;;18.99;67.54;100682.47;5048010;28;20044;-64
2022/07/14 02:46:58;;;;;;;7.60;3.22;;;;;;;19.00;67.46;100672.81;5051613;28;20079;-64
2022/07/14 02:49:25;;;;;;;5.95;3.33;;;;;;;18.91;67.53;100660.91;5051942;28;20060;-64
2022/07/14 02:51:52;;;;;;;6.00;3.30;;;;;;;18.85;67.92;100658.34;5051274;28;20052;-64
2022/07/14 02:54:20;;;;;;;5.90;3.20;;;;;;;18.88;67.48;100668.09;5039687;28;20060;-64
2022/07/14 02:56:47;;;;;;;7.03;3.40;;;;;;;18.85;67.96;100669.63;5051476;28;20402;-64
2022/07/14 02:59:14;;;;;;;5.22;2.90;;;;;;;18.87;67.78;100660.81;5051627;28;20057;-65
2022/07/14 03:01:41;;;;;;;9.88;3.80;;;;;;;18.89;67.81;100660.44;5051423;28;20485;-68
2022/07/14 03:04:10;;;;;;;10.27;4.13;;;;;;;18.88;67.55;100662.47;5048681;28;20052;-67
2022/07/14 03:06:37;;;;;;;5.37;2.97;;;;;;;18.82;67.58;100658.28;5049205;28;20060;-67
2022/07/14 03:09:05;;;;;;;8.52;3.65;;;;;;;18.80;67.50;100649.34;5051191;28;20992;-68
2022/07/14 03:11:32;;;;;;;8.32;3.35;;;;;;;18.80;67.68;100658.63;5051414;28;20080;-67
2022/07/14 03:13:59;;;;;;;8.15;3.58;;;;;;;18.77;67.64;100659.34;5050817;28;20060;-68
2022/07/14 03:16:26;;;;;;;5.75;3.63;;;;;;;18.76;67.86;100668.19;5042585;28;20052;-67
2022/07/14 03:18:54;;;;;;;8.73;3.60;;;;;;;18.79;67.91;100670.28;5054858;28;20413;-67
2022/07/14 03:21:23;;;;;;;7.18;3.47;;;;;;;18.79;68.27;100670.28;5055761;28;20067;-67
2022/07/14 03:23:50;;;;;;;7.60;3.25;;;;;;;18.82;67.88;100675.22;5055334;28;20057;-67
2022/07/14 03:26:17;;;;;;;7.32;3.13;;;;;;;18.85;67.88;100669.63;5043918;28;20053;-67
2022/07/14 03:28:45;;;;;;;7.50;3.80;;;;;;;18.90;67.87;100671.38;5055309;28;20053;-67
2022/07/14 03:31:12;;;;;;;11.07;3.75;;;;;;;18.93;67.71;100675.47;5055216;28;20406;-67
2022/07/14 03:33:39;;;;;;;7.35;3.47;;;;;;;18.97;67.46;100665.91;5055385;28;20060;-67
2022/07/14 03:36:07;;;;;;;10.95;4.18;;;;;;;19.03;67.09;100661.59;5052136;28;20049;-67
2022/07/14 03:38:35;;;;;;;11.35;3.97;;;;;;;19.05;66.81;100666.91;5054831;28;20075;-67
2022/07/14 03:41:03;;;;;;;8.23;3.20;;;;;;;19.11;66.66;100675.88;5055038;28;20049;-67
2022/07/14 03:43:30;;;;;;;9.50;3.60;;;;;;;19.10;66.25;100677.06;5055072;28;20060;-67
2022/07/14 03:45:58;;;;;;;9.00;3.65;;;;;;;19.11;65.84;100684.34;5044216;28;20061;-67
2022/07/14 03:48:25;;;;;;;10.60;3.58;;;;;;;19.10;66.17;100686.34;5055103;28;20053;-67
2022/07/14 03:50:52;;;;;;;9.07;3.75;;;;;;;19.12;65.86;100680.34;5046530;28;20057;-67
2022/07/14 03:53:20;;;;;;;11.00;4.18;;;;;;;19.14;65.80;100672.34;5054950;28;20473;-67
2022/07/14 03:55:49;;;;;;;9.90;3.35;;;;;;;19.16;65.60;100670.78;5044645;28;20060;-67
2022/07/14 03:58:16;;;;;;;9.40;3.63;;;;;;;19.18;66.11;100670.41;5035081;28;20413;-67
2022/07/14 04:00:43;;;;;;;10.52;3.67;;;;;;;19.23;65.79;100665.31;5027113;28;20053;-69
2022/07/14 04:03:11;;;;;;;12.02;4.40;;;;;;;19.26;65.59;100650.44;5034526;28;20068;-67
2022/07/14 04:05:39;;;;;;;9.38;3.45;;;;;;;19.30;65.28;100642.03;5027073;28;20053;-67
2022/07/14 04:08:06;;;;;;;9.70;3.13;;;;;;;19.35;64.85;100644.56;5048076;28;20390;-67
2022/07/14 04:10:33;;;;;;;8.90;3.53;;;;;;;19.39;64.52;100648.28;5046462;28;20056;-67
2022/07/14 04:13:03;;;;;;;9.93;3.40;;;;;;;19.43;64.28;100648.38;5054303;28;20052;-67
2022/07/14 04:15:30;;;;;;;6.32;3.40;;;;;;;19.47;64.13;100640.78;5046595;28;20057;-68
2022/07/14 04:17:58;;;;;;;8.88;3.42;;;;;;;19.48;64.28;100633.94;5043125;28;20053;-67
2022/07/14 04:20:26;;;;;;;9.88;3.30;;;;;;;19.52;64.78;100640.47;5046267;28;20401;-67
2022/07/14 04:22:53;;;;;;;9.50;4.25;;;;;;;19.56;64.21;100632.09;5047930;28;20049;-66
2022/07/14 04:25:20;;;;;;;6.85;2.83;;;;;;;19.59;64.23;100635.00;5046273;28;20057;-68
2022/07/14 04:27:48;;;;;;;8.77;3.00;;;;;;;19.63;64.12;100635.06;5053982;28;20057;-68
2022/07/14 04:30:16;;;;;;;10.40;3.33;;;;;;;19.69;63.80;100639.22;5053948;28;20063;-68
2022/07/14 04:32:44;;;;;;;10.80;3.20;;;;;;;19.72;63.30;100644.16;5052215;28;20816;-68
2022/07/14 04:35:11;;;;;;;11.90;3.65;;;;;;;19.73;63.30;100656.28;5045841;28;20057;-68
2022/07/14 04:37:39;;;;;;;10.82;3.55;;;;;;;19.81;62.67;100647.56;5054272;28;20049;-67
2022/07/14 04:40:08;;;;;;;12.88;3.45;;;;;;;19.86;62.29;100650.13;5045611;28;20065;-68
2022/07/14 04:42:36;;;;;;;9.65;3.40;;;;;;;19.88;62.02;100661.03;5051778;28;20059;-68
2022/07/14 04:45:05;;;;;;;11.02;3.22;;;;;;;19.87;61.92;100663.03;5053237;28;20409;-68
2022/07/14 04:47:33;;;;;;;15.98;4.25;;;;;;;19.90;61.71;100660.66;5053680;28;20073;-68
2022/07/14 04:52:47;;;;;;;9.30;3.58;;;;;;;19.89;61.65;100659.03;5058975;28;20059;-67
2022/07/14 04:55:14;;;;;;;8.98;3.30;;;;;;;19.89;61.81;100670.34;5052285;28;20477;-68
2022/07/14 04:57:42;;;;;;;8.70;3.22;;;;;;;19.95;61.48;100668.81;5053965;28;20414;-68
2022/07/14 05:00:11;;;;;;;9.77;3.55;;;;;;;19.90;61.22;100663.50;5053412;28;20382;-68
2022/07/14 05:02:40;;;;;;;11.10;3.00;;;;;;;19.90;61.67;100661.47;5053496;28;20056;-67
2022/07/14 05:05:08;;;;;;;7.43;2.83;;;;;;;19.91;61.47;100656.63;5047399;28;20049;-68
2022/07/14 05:07:36;;;;;;;10.88;3.88;;;;;;;19.99;61.01;100664.06;5053504;28;20049;-68
2022/07/14 05:10:04;;;;;;;11.82;3.42;;;;;;;19.96;61.12;100653.50;5044843;28;20490;-68
2022/07/14 05:12:33;;;;;;;10.82;3.70;;;;;;;19.91;61.21;100659.44;5053108;28;20053;-68
2022/07/14 05:15:01;;;;;;;13.83;3.40;;;;;;;19.83;61.31;100664.97;5038496;28;20053;-68
2022/07/14 05:17:29;;;;;;;12.57;3.50;;;;;;;19.86;61.37;100666.22;5041849;28;20363;-68
2022/07/14 05:19:57;;;;;;;9.80;3.72;;;;;;;19.87;61.32;100663.03;5038295;28;20059;-67
2022/07/14 05:22:26;;;;;;;13.40;3.78;;;;;;;19.81;61.34;100675.03;5048481;28;20048;-68
2022/07/14 05:24:53;;;;;;;12.48;3.60;;;;;;;19.79;61.27;100678.22;5064821;28;20057;-68
2022/07/14 05:27:20;;;;;;;9.75;3.45;;;;;;;19.84;61.11;100674.28;5038689;28;20069;-68
2022/07/14 05:29:48;;;;;;;10.57;3.47;;;;;;;19.82;61.24;100662.53;5033286;28;20057;-68
2022/07/14 05:32:15;;;;;;;12.45;4.95;;;;;;;19.84;61.05;100665.78;5033536;28;20060;-68
2022/07/14 05:34:43;;;;;;;10.25;3.67;;;;;;;19.81;61.41;100667.34;5040820;28;20375;-68
2022/07/14 05:37:12;;;;;;;11.52;3.25;;;;;;;19.85;61.16;100665.44;5045376;28;20508;-68
2022/07/14 05:39:40;;;;;;;9.85;3.63;;;;;;;19.82;61.35;100663.34;5047297;28;20045;-68
2022/07/14 05:42:07;;;;;;;11.88;3.80;;;;;;;19.91;61.61;100662.28;5051789;28;20045;-68
2022/07/14 05:44:35;;;;;;;9.00;3.20;;;;;;;19.98;61.68;100668.09;5050322;28;20393;-67
2022/07/14 05:47:03;;;;;;;11.73;3.53;;;;;;;20.14;63.84;100665.16;5045977;28;20508;-49
2022/07/14 05:49:31;;;;;;;13.90;3.70;;;;;;;20.43;62.57;100658.84;5044821;28;20390;-51
2022/07/14 05:52:00;;;;;;;11.10;3.78;;;;;;;20.66;61.43;100653.22;5049871;28;20057;-51
2022/07/14 05:54:29;;;;;;;11.05;3.00;;;;;;;20.87;60.36;100649.91;5052863;28;20046;-52
2022/07/14 05:56:56;;;;;;;8.27;3.00;;;;;;;21.16;58.97;100635.34;5048944;28;20049;-50
2022/07/14 05:59:24;;;;;;;8.75;3.45;;;;;;;21.26;58.28;100646.00;5049516;28;20064;-50
2022/07/14 06:01:51;;;;;;;13.40;3.65;;;;;;;21.47;57.54;100649.16;5050000;28;20436;-48
2022/07/14 06:04:18;;;;;;;10.05;3.50;;;;;;;21.62;56.78;100655.00;5042542;28;20053;-50
2022/07/14 06:06:46;;;;;;;11.75;3.28;;;;;;;21.58;56.58;100654.16;5050203;28;20417;-50
2022/07/14 06:09:14;;;;;;;10.93;3.60;;;;;;;21.51;56.62;100656.91;5050810;28;20056;-50
2022/07/14 06:11:43;;;;;;;9.55;3.20;;;;;;;21.62;56.31;100652.19;5051868;28;20057;-53
2022/07/14 06:14:11;;;;;;;;;;;;;;;21.60;55.80;100657.41;5049969;28;20056;-49
2022/07/14 06:16:39;;;;;;;9.43;3.38;;;;;;;21.69;55.76;100652.25;5045080;28;19920;-49
2022/07/14 06:19:07;;;;;;;11.30;4.03;;;;;;;21.78;55.70;100649.16;5041237;28;20421;-49
2022/07/14 06:21:34;;;;;;;11.40;4.50;;;;;;;21.84;55.20;100653.28;5050299;28;20494;-53
2022/07/14 06:24:01;;;;;;;12.80;3.67;;;;;;;22.09;54.81;100659.22;5046497;28;20057;-48
2022/07/14 06:26:29;;;;;;;10.70;3.65;;;;;;;22.27;54.12;100660.25;5043203;28;20525;-50
2022/07/14 06:28:57;;;;;;;8.93;3.30;;;;;;;22.44;53.74;100672.16;5050733;28;20053;-67
2022/07/14 06:31:25;;;;;;;11.73;3.92;;;;;;;22.50;53.26;100665.72;5047715;28;20060;-68
2022/07/14 06:33:52;;;;;;;12.95;3.83;;;;;;;22.58;52.64;100675.13;5041711;28;20048;-68
2022/07/14 06:36:20;;;;;;;13.52;3.95;;;;;;;22.54;52.86;100679.16;5045946;28;20365;-68
2022/07/14 06:38:47;;;;;;;9.95;3.67;;;;;;;22.67;52.61;100683.31;5050648;28;20053;-68
2022/07/14 06:41:14;;;;;;;12.25;3.80;;;;;;;22.75;52.32;100684.22;5050212;28;20143;-68
2022/07/14 06:43:42;;;;;;;12.30;3.85;;;;;;;23.00;51.72;100670.19;5049973;28;20045;-68
2022/07/14 06:46:14;;;;;;;16.40;3.78;;;;;;;23.08;51.48;100669.06;5048222;28;20057;-68
2022/07/14 06:48:42;;;;;;;12.38;3.40;;;;;;;23.16;51.61;100667.06;5045740;28;20052;-67
2022/07/14 06:51:09;;;;;;;9.40;3.42;;;;;;;23.25;51.27;100651.31;5033470;28;20057;-66
2022/07/14 06:53:37;;;;;;;12.50;4.45;;;;;;;23.26;51.05;100652.13;5043174;28;20060;-68
2022/07/14 06:56:04;;;;;;;13.82;4.10;;;;;;;23.50;50.98;100662.81;5054439;28;20053;-66
2022/07/14 06:58:32;;;;;;;11.45;4.00;;;;;;;23.62;50.57;100663.69;5045220;28;20064;-68
2022/07/14 07:01:00;;;;;;;9.23;4.38;;;;;;;23.73;50.03;100669.41;5042867;28;20075;-68
2022/07/14 07:03:28;;;;;;;9.57;3.38;;;;;;;23.65;50.15;100668.59;5049054;28;20067;-67
2022/07/14 07:08:40;;;;;;;10.05;3.28;;;;;;;24.10;49.33;100663.47;5062313;28;20068;-67
2022/07/14 07:11:09;;;;;;;10.63;3.78;;;;;;;24.41;48.48;100664.75;5043892;28;20490;-67
2022/07/14 07:13:37;;;;;;;10.73;3.63;;;;;;;24.47;47.92;100654.59;5044626;28;20063;-68
2022/07/14 07:16:04;;;;;;;11.35;3.78;;;;;;;24.49;48.06;100657.06;5047957;28;20061;-67
2022/07/14 07:18:34;;;;;;;11.95;3.80;;;;;;;24.56;47.00;100654.22;5051893;28;20045;-68
2022/07/14 07:21:01;;;;;;;11.27;3.60;;;;;;;24.50;47.26;100661.53;5044170;28;20052;-67
2022/07/14 07:23:30;;;;;;;10.18;3.90;;;;;;;24.57;47.29;100657.88;5048524;28;20053;-68
2022/07/14 07:25:57;;;;;;;10.07;3.60;;;;;;;24.87;46.70;100651.78;4996467;28;1304807;-68
2022/07/14 07:28:24;;;;;;;14.75;4.20;;;;;;;25.00;45.95;100644.41;5050379;28;20056;-67
2022/07/14 07:30:52;;;;;;;13.18;4.07;;;;;;;25.06;45.98;100654.19;5042399;28;20060;-68
2022/07/14 07:33:19;;;;;;;12.35;3.50;;;;;;;25.19;45.44;100650.91;5048690;28;20072;-67
2022/07/14 07:35:48;;;;;;;10.60;3.97;;;;;;;25.39;45.19;100649.25;5045534;28;20052;-67
2022/07/14 07:38:17;;;;;;;11.35;3.33;;;;;;;25.52;44.68;100649.63;5043867;28;20080;-68
2022/07/14 07:40:47;;;;;;;10.80;3.50;;;;;;;25.45;44.85;100661.88;5047820;28;20061;-68
2022/07/14 07:43:14;;;;;;;11.52;4.05;;;;;;;25.39;44.74;100654.97;5051982;28;20512;-67
2022/07/14 07:45:41;;;;;;;9.98;3.75;;;;;;;25.50;44.53;100650.03;5058422;28;20049;-66
2022/07/14 07:48:09;;;;;;;13.73;3.28;;;;;;;25.56;44.03;100658.19;5047027;28;20052;-67
2022/07/14 07:50:36;;;;;;;10.63;3.40;;;;;;;25.58;44.58;100658.56;5044152;28;20065;-68
2022/07/14 07:53:07;;;;;;;10.50;3.65;;;;;;;25.40;44.59;100661.47;5050645;28;20041;-68
2022/07/14 07:55:34;;;;;;;12.43;3.60;;;;;;;25.11;44.91;100668.03;5048683;28;20045;-67
2022/07/14 07:58:01;;;;;;;11.18;3.72;;;;;;;24.74;45.96;100668.47;5047669;28;20064;-68
2022/07/14 08:00:30;;;;;;;9.27;3.42;;;;;;;24.71;46.40;100655.88;5050200;28;20060;-68
2022/07/14 08:03:00;;;;;;;8.48;3.40;;;;;;;24.94;45.54;100648.91;5049831;28;20045;-68
2022/07/14 08:05:29;;;;;;;12.35;4.03;;;;;;;25.30;44.44;100649.69;5052860;28;20413;-68
2022/07/14 08:07:57;;;;;;;10.05;4.00;;;;;;;25.52;44.59;100646.78;5045518;28;20070;-68
2022/07/14 08:10:26;;;;;;;10.25;4.03;;;;;;;25.73;43.86;100637.31;5043273;28;20485;-68
2022/07/14 08:12:53;;;;;;;12.52;4.35;;;;;;;26.29;42.58;100638.25;5036760;28;20057;-68
2022/07/14 08:15:22;;;;;;;18.70;6.03;;;;;;;26.36;42.31;100628.81;5044993;28;20045;-67
2022/07/14 08:17:49;;;;;;;11.53;4.60;;;;;;;26.38;41.88;100628.38;5050872;28;20052;-67
2022/07/14 08:20:16;;;;;;;7.05;3.47;;;;;;;26.56;41.88;100634.75;5046721;28;20053;-68
2022/07/14 08:22:44;;;;;;;10.20;3.83;;;;;;;26.64;41.28;100629.81;5054266;28;20057;-67
2022/07/14 08:25:11;;;;;;;8.88;3.90;;;;;;;26.65;41.29;100629.41;5049861;28;20052;-67
2022/07/14 08:27:39;;;;;;;8.00;3.08;;;;;;;27.43;39.80;100618.41;5053171;28;20076;-67
2022/07/14 08:30:08;;;;;;;9.75;3.72;;;;;;;27.54;39.27;100606.84;5042498;28;20402;-66
2022/07/14 08:32:37;;;;;;;8.00;3.20;;;;;;;27.76;38.80;100613.09;5053053;28;20057;-68
2022/07/14 08:35:05;;;;;;;7.82;3.47;;;;;;;27.86;38.18;100609.28;5051232;28;20482;-67
2022/07/14 08:37:33;;;;;;;10.35;3.47;;;;;;;28.00;38.69;100614.00;5040221;28;20052;-68
2022/07/14 08:40:01;;;;;;;10.13;3.55;;;;;;;28.24;37.25;100612.00;5051195;28;20059;-68
2022/07/14 08:42:29;;;;;;;7.57;3.70;;;;;;;28.25;35.59;100598.50;5053002;28;20064;-67
2022/07/14 08:44:59;;;;;;;8.93;3.80;;;;;;;28.69;34.53;100594.50;5047206;28;20045;-67
2022/07/14 08:47:26;;;;;;;7.40;3.50;;;;;;;28.85;33.78;100595.84;5051421;28;20064;-68
2022/07/14 08:49:54;;;;;;;6.95;3.10;;;;;;;29.24;34.07;100605.81;5051936;28;20048;-67
2022/07/14 08:52:23;;;;;;;9.95;3.80;;;;;;;29.76;32.71;100605.16;5052499;28;20072;-66
2022/07/14 08:54:52;;;;;;;10.93;3.72;;;;;;;30.50;32.29;100592.34;5052775;28;20045;-67
2022/07/14 08:57:19;;;;;;;;;;;;;;;30.85;31.56;100584.84;5048643;28;20064;-68
2022/07/14 08:59:48;;;;;;;8.07;3.13;;;;;;;32.01;30.29;100588.94;5053494;28;19924;-67
2022/07/14 09:02:16;;;;;;;8.68;3.75;;;;;;;32.16;29.30;100584.31;5052052;28;20509;-68
2022/07/14 09:04:47;;;;;;;7.10;3.08;;;;;;;32.80;28.84;100585.50;5049753;28;20057;-67
2022/07/14 09:07:30;;;;;;;8.07;3.08;;;;;;;33.47;27.84;100587.97;5045884;28;20417;-67
2022/07/14 09:10:06;;;;;;;7.95;3.22;;;;;;;35.03;25.80;100581.22;5050619;28;20485;-67
2022/07/14 09:12:35;;;;;;;7.60;3.50;;;;;;;36.14;24.24;100581.03;5052339;28;20485;-65
2022/07/14 09:17:54;;;;;;;7.20;3.47;;;;;;;37.06;22.16;100565.13;5057187;28;20056;-66
2022/07/14 09:20:28;;;;;;;7.07;2.95;;;;;;;36.50;22.93;100564.72;5048154;28;20045;-65
2022/07/14 09:22:58;;;;;;;8.90;3.70;;;;;;;35.58;23.26;100566.69;5050823;28;20049;-65
2022/07/14 09:25:27;;;;;;;8.00;3.72;;;;;;;35.27;24.27;100569.00;5048967;28;20055;-66
2022/07/14 09:27:56;;;;;;;11.13;3.58;;;;;;;35.92;23.73;100570.47;5051535;28;20072;-66
2022/07/14 09:30:25;;;;;;;8.32;3.00;;;;;;;36.66;22.65;100570.09;5050693;28;20058;-66
2022/07/14 09:32:59;;;;;;;4.85;3.00;;;;;;;37.05;20.99;100557.72;5051673;28;20136;-67
2022/07/14 09:35:28;;;;;;;4.78;2.60;;;;;;;37.65;20.78;100564.41;5046811;28;20067;-66
2022/07/14 09:37:56;;;;;;;5.13;2.88;;;;;;;38.48;20.21;100566.28;5050587;28;20596;-66
2022/07/14 09:40:27;;;;;;;5.65;2.40;;;;;;;38.91;18.93;100557.84;5052207;28;20049;-67
2022/07/14 09:42:57;;;;;;;7.95;3.10;;;;;;;37.85;20.19;100567.41;5051199;28;20045;-65
2022/07/14 09:45:29;;;;;;;5.70;2.90;;;;;;;37.52;20.17;100568.41;5047901;28;20501;-66
2022/07/14 09:48:03;;;;;;;7.55;3.20;;;;;;;37.67;20.11;100567.63;5038481;28;20045;-66
2022/07/14 09:50:45;;;;;;;6.85;3.10;;;;;;;38.05;19.81;100565.91;5048305;28;20454;-65
2022/07/14 09:53:21;;;;;;;7.78;3.03;;;;;;;39.04;19.04;100561.22;5049956;28;20056;-65
2022/07/14 09:55:52;;;;;;;6.45;3.10;;;;;;;38.96;18.85;100563.00;5043933;28;20056;-65
2022/07/14 09:58:20;;;;;;;7.60;3.45;;;;;;;38.65;19.00;100567.34;5048240;28;20494;-65
2022/07/14 10:00:54;;;;;;;;;;;;;;;39.82;17.24;100560.44;5060696;28;20405;-66
2022/07/14 10:03:23;;;;;;;4.05;2.50;;;;;;;40.66;14.77;100563.13;5042738;28;19940;-64
2022/07/14 10:05:53;;;;;;;6.50;2.90;;;;;;;40.61;14.55;100560.97;5037341;28;20516;-65
2022/07/14 10:08:23;;;;;;;7.00;3.55;;;;;;;40.53;15.72;100575.28;5035909;28;20528;-66
2022/07/14 10:10:52;;;;;;;5.70;3.08;;;;;;;40.21;15.87;100565.75;5047324;28;20068;-65
2022/07/14 10:13:21;;;;;;;4.93;3.13;;;;;;;40.76;15.40;100569.56;5040065;28;20075;-65
2022/07/14 10:15:50;;;;;;;5.57;3.20;;;;;;;40.77;15.22;100562.41;5047414;28;20045;-66
2022/07/14 10:18:18;;;;;;;6.18;3.17;;;;;;;42.46;14.02;100562.59;5051500;28;20402;-66
2022/07/14 10:20:50;;;;;;;5.88;3.45;;;;;;;43.88;13.51;100554.59;5052532;28;20060;-66
2022/07/14 10:23:19;;;;;;;7.03;3.53;;;;;;;43.59;13.71;100548.16;5048044;28;20053;-65
2022/07/14 10:25:47;;;;;;;7.43;4.05;;;;;;;43.51;13.81;100549.28;5046518;28;20148;-64
2022/07/14 10:28:18;;;;;;;6.60;3.50;;;;;;;44.36;13.59;100553.06;5051315;28;20056;-64
2022/07/14 10:30:56;;;;;;;8.23;4.18;;;;;;;45.37;12.13;100544.31;5052449;28;20057;-66
2022/07/14 10:33:33;;;;;;;5.95;3.72;;;;;;;45.82;12.75;100540.59;5051293;28;20083;-64
2022/07/14 10:36:11;;;;;;;6.00;3.70;;;;;;;46.24;11.53;100543.88;5045993;28;20508;-66
2022/07/14 10:39:02;;;;;;;4.65;2.75;;;;;;;46.95;10.06;100538.41;5051271;28;20063;-64
2022/07/14 10:42:00;;;;;;;9.10;3.38;;;;;;;46.67;9.66;100539.03;5050035;28;20049;-65
2022/07/14 10:44:30;;;;;;;4.38;2.60;;;;;;;46.96;9.90;100552.59;5050919;28;20075;-65
2022/07/14 10:47:08;;;;;;;5.15;2.45;;;;;;;47.34;9.75;100545.59;5049908;28;20052;-65
2022/07/14 10:50:05;;;;;;;4.40;2.50;;;;;;;47.06;9.91;100561.72;5046520;28;21116;-64
2022/07/14 10:52:36;;;;;;;3.55;2.00;;;;;;;47.37;9.18;100559.97;5033271;28;20057;-65
2022/07/14 10:55:18;;;;;;;6.32;2.90;;;;;;;48.23;9.57;100553.47;5041754;28;20060;-65
2022/07/14 10:58:22;;;;;;;4.80;2.35;;;;;;;48.40;9.26;100549.28;5046445;28;20049;-64
2022/07/14 11:00:58;;;;;;;5.40;2.20;;;;;;;47.73;9.24;100544.59;5038544;28;20048;-65
2022/07/14 11:03:41;;;;;;;2.92;1.60;;;;;;;47.93;9.43;100540.06;5042747;28;20414;-65
2022/07/14 11:06:23;;;;;;;2.85;1.50;;;;;;;47.35;9.70;100544.19;5047276;28;20042;-66
2022/07/14 11:09:40;;;;;;;3.55;1.67;;;;;;;47.70;9.62;100542.03;5036560;28;20053;-66
2022/07/14 11:12:13;;;;;;;4.57;1.80;;;;;;;47.90;9.75;100523.53;5050393;28;20060;-64
2022/07/14 11:14:45;;;;;;;3.50;1.80;;;;;;;47.61;9.92;100531.50;5050629;28;20045;-64
2022/07/14 11:17:48;;;;;;;3.08;1.75;;;;;;;47.61;9.82;100530.69;5044849;28;20044;-66
2022/07/14 11:20:16;;;;;;;3.13;1.80;;;;;;;47.37;9.90;100529.66;4985249;28;20071;-65
2022/07/14 11:23:21;;;;;;;5.10;2.00;;;;;;;47.40;9.83;100522.63;4987714;28;20062;-65
2022/07/14 11:25:52;;;;;;;2.85;1.73;;;;;;;47.69;9.27;100534.50;5004521;28;20052;-66
2022/07/14 11:28:51;;;;;;;3.17;1.60;;;;;;;47.54;9.61;100527.09;5032616;28;20053;-65
2022/07/14 11:31:27;;;;;;;3.60;1.67;;;;;;;48.03;8.93;100527.72;4989207;28;20065;-66
2022/07/14 11:37:00;;;;;;;2.92;1.55;;;;;;;47.63;8.67;100533.88;5055357;28;20151;-65
2022/07/14 11:39:34;;;;;;;2.63;1.60;;;;;;;47.28;9.23;100533.13;5040189;28;20389;-64
2022/07/14 11:42:06;;;;;;;3.25;1.60;;;;;;;46.99;9.24;100524.09;5051346;28;20053;-64
2022/07/14 11:44:55;;;;;;;3.40;1.70;;;;;;;46.50;10.15;100521.69;5058131;28;20075;-64
2022/07/14 11:47:24;;;;;;;3.80;1.60;;;;;;;46.66;10.49;100522.69;5045280;28;20068;-64
2022/07/14 11:50:00;;;;;;;3.13;1.52;;;;;;;46.89;9.53;100523.00;5048951;28;20064;-65